Date,TemperatureHighF,TemperatureAvgF,TemperatureLowF,DewpointHighF,DewpointAvgF,DewpointLowF,HumidityHigh,HumidityAvg,HumidityLow,PressureMaxIn,PressureMinIn,WindSpeedMaxMPH,WindSpeedAvgMPH,GustSpeedMaxMPH,PrecipitationSumIn
2013-3-2,56.4,38.3,22.9,25.5,20.0,14.2,70,50,27,30.80,30.54,3,1,11,0.00
2013-3-3,56.7,41.7,26.9,25.1,20.2,17.3,70,45,24,30.53,30.11,6,2,19,0.00
2013-3-4,45.8,40.9,30.2,25.4,22.3,19.1,63,47,41,30.35,29.98,6,4,21,0.00
2013-3-5,55.1,36.2,19.2,19.1,12.7,6.4,74,43,14,30.63,30.35,3,1,11,0.00
2013-3-6,57.5,41.6,26.3,27.3,20.9,11.7,65,45,31,30.54,30.26,7,3,20,0.00
2013-3-7,61.1,44.0,26.3,24.1,18.8,13.9,65,40,16,30.31,30.15,7,2,21,0.00
2013-3-8,54.6,38.1,29.6,32.3,24.9,17.8,90,63,28,30.19,29.95,10,2,22,0.03
2013-3-9,31.4,26.6,21.6,28.7,21.3,17.0,90,80,66,30.29,29.96,18,3,18,0.07
2013-3-10,38.9,28.0,22.1,20.8,17.6,14.8,88,67,38,30.59,30.41,3,1,11,0.50
2013-3-11,49.5,33.7,18.8,27.0,20.2,13.4,80,60,37,30.62,30.40,4,2,14,0.00
2013-3-12,54.4,38.9,25.5,29.2,23.7,19.0,77,57,33,30.57,30.43,3,1,13,0.00
2013-3-13,59.5,42.0,27.8,31.4,25.4,21.2,77,55,28,30.64,30.51,3,1,11,0.00
2013-3-14,65.5,46.5,32.2,28.2,23.6,21.0,66,44,20,30.61,30.44,8,2,15,0.00
2013-3-15,69.8,49.4,34.0,28.5,22.7,19.6,58,38,18,30.47,30.16,6,2,19,0.00
2013-3-16,58.9,48.4,35.9,33.7,26.7,20.1,76,45,26,30.16,29.93,21,3,21,0.00
2013-3-17,55.9,40.8,27.7,32.8,24.6,11.8,87,58,20,30.09,29.90,23,3,25,0.00
2013-3-18,54.4,39.8,25.3,18.6,13.5,5.2,58,36,21,30.29,30.09,21,3,23,0.00
2013-3-19,48.7,36.7,25.8,21.0,14.6,5.8,67,42,25,30.52,30.28,12,1,12,0.00
2013-3-20,55.2,39.7,22.4,25.8,20.3,13.7,72,48,29,30.58,30.17,17,2,17,0.00
2013-3-21,57.9,45.5,31.7,30.7,22.9,14.0,62,43,21,30.17,29.77,27,4,27,0.00
2013-3-22,52.3,39.6,26.1,19.6,14.9,11.2,56,38,24,30.04,29.88,23,3,23,0.00
2013-3-23,39.4,27.3,11.3,20.9,6.3,-4.8,69,42,22,30.44,29.90,28,4,28,0.00
2013-3-24,41.1,23.8,6.8,10.1,3.3,-2.4,72,45,23,30.64,30.44,19,3,19,0.00
2013-3-25,45.8,25.9,8.3,11.5,5.7,1.9,82,47,19,30.67,30.55,13,1,13,0.00
2013-3-26,56.6,32.6,19.0,21.1,13.0,4.5,65,47,24,30.67,30.41,21,2,21,0.00
2013-3-27,62.1,45.3,28.2,24.5,17.1,12.0,55,34,18,30.33,30.19,6,2,16,0.00
2013-3-28,64.1,47.4,27.4,24.6,17.9,12.3,62,33,19,30.36,30.24,15,2,15,0.00
2013-3-29,61.9,45.0,33.3,27.6,22.3,14.8,62,42,22,30.39,30.27,15,2,15,0.00
2013-3-30,66.2,47.6,30.9,30.5,23.8,19.6,69,43,22,30.43,30.19,15,2,15,0.00
2013-3-31,65.3,48.2,30.7,32.3,25.5,20.4,70,43,26,30.28,30.12,19,2,19,0.00